PWSweather.com
Personal Weather Stations
Station Observations
PHMDWX
Perry Hall, MD 21236

Perry Hall, MD 21236

Lat: 39.418318, Lon: -76.490039

Elevation: 305

Station Type: Davis Vantage Pro

Latest ConditionsUpdated 11:30:19 AM EDT Thursday, Oct 30, 2014
Currently Today's Max Today's Min Today's Average
Temperature 56.3°F13.5°C 56.3°F13.5°C 43.6°F6.4°C 46.6°F8.1°C
Dew Point 42.6°F5.9°C 48.7°F9.3°C 42.6°F5.9°C 44.7°F7.1°C
Winds 3.5 mph NW5.6 kmh NW 8.2 mph NW13.2 kmh NW - 2.0 mph 3.2 kmh
Wind Gusts 5.0 mph8.0 kmh 13.0 mph20.9 kmh - -
Humidity 60% 99% 60% 94%
Pressure 30.03 in1016.9 mb 30.03 in1016.9 mb 29.96 in1014.6 mb -
Precipitation - 0.01 in0.3 mm - -
Hour Temp Dew Point Humidity Winds Wind Gusts Pressure Precip Precip Rate Daily Precip Total
11:30 AM 56.3°F13.5°C 42.6°F5.9°C 60% 3.5 mph NW5.6 kmh NW 5.0 mph8.0 kmh 30.03 in1016.9 mb 0.00 in0.0 mm 0.00 in/hr0.0 mm/hr 0.01 in0.3 mm
11:00 AM 54.0°F12.2°C 42.9°F6.1°C 66% 4.6 mph W7.4 kmh W 7.0 mph11.3 kmh 30.03 in1016.9 mb 0.00 in0.0 mm 0.00 in/hr0.0 mm/hr 0.01 in0.3 mm
10:30 AM 51.1°F10.6°C 43.1°F6.2°C 74% 8.2 mph NW13.2 kmh NW 13.0 mph20.9 kmh 30.03 in1016.9 mb 0.00 in0.0 mm 0.00 in/hr0.0 mm/hr 0.01 in0.3 mm
10:00 AM 48.3°F9.1°C 43.7°F6.5°C 84% 2.0 mph W3.2 kmh W 7.0 mph11.3 kmh 30.03 in1016.9 mb 0.00 in0.0 mm 0.00 in/hr0.0 mm/hr 0.01 in0.3 mm
09:30 AM 45.4°F7.4°C 44.3°F6.8°C 96% 4.5 mph W7.2 kmh W 7.0 mph11.3 kmh 30.03 in1016.9 mb 0.00 in0.0 mm 0.00 in/hr0.0 mm/hr 0.01 in0.3 mm
09:00 AM 44.1°F6.7°C 43.6°F6.4°C 98% 3.8 mph WNW6.1 kmh WNW 7.0 mph11.3 kmh 30.03 in1016.9 mb 0.00 in0.0 mm 0.00 in/hr0.0 mm/hr 0.01 in0.3 mm
08:30 AM 44.3°F6.8°C 44.0°F6.7°C 99% 3.8 mph WNW6.1 kmh WNW 5.0 mph8.0 kmh 30.02 in1016.6 mb 0.00 in0.0 mm 0.00 in/hr0.0 mm/hr 0.01 in0.3 mm
08:00 AM 44.2°F6.8°C 43.9°F6.6°C 99% 2.0 mph WNW3.2 kmh WNW 4.0 mph6.4 kmh 30.01 in1016.3 mb 0.00 in0.0 mm 0.00 in/hr0.0 mm/hr 0.01 in0.3 mm
07:30 AM 43.6°F6.4°C 43.3°F6.3°C 99% 1.2 mph W1.9 kmh W 2.0 mph3.2 kmh 30.00 in1015.9 mb 0.00 in0.0 mm 0.00 in/hr0.0 mm/hr 0.01 in0.3 mm
07:00 AM 43.6°F6.4°C 43.3°F6.3°C 99% 0.9 mph WSW1.4 kmh WSW 3.0 mph4.8 kmh 30.00 in1015.9 mb 0.00 in0.0 mm 0.00 in/hr0.0 mm/hr 0.01 in0.3 mm
06:30 AM 43.8°F6.6°C 43.5°F6.4°C 99% 1.6 mph WSW2.6 kmh WSW 3.0 mph4.8 kmh 29.99 in1015.6 mb 0.01 in0.3 mm 0.02 in/hr0.5 mm/hr 0.01 in0.3 mm
06:00 AM 43.9°F6.6°C 43.6°F6.4°C 99% 0.7 mph WSW1.1 kmh WSW 3.0 mph4.8 kmh 29.98 in1015.2 mb 0.00 in0.0 mm 0.00 in/hr0.0 mm/hr 0.00 in0.0 mm
05:30 AM 44.2°F6.8°C 43.9°F6.6°C 99% 1.1 mph WSW1.8 kmh WSW 1.0 mph1.6 kmh 29.98 in1015.2 mb 0.00 in0.0 mm 0.00 in/hr0.0 mm/hr 0.00 in0.0 mm
05:00 AM 44.5°F6.9°C 44.2°F6.8°C 99% 1.8 mph WSW2.9 kmh WSW 3.0 mph4.8 kmh 29.98 in1015.2 mb 0.00 in0.0 mm 0.00 in/hr0.0 mm/hr 0.00 in0.0 mm
04:30 AM 44.8°F7.1°C 44.5°F6.9°C 99% 0.6 mph WSW1.0 kmh WSW 1.0 mph1.6 kmh 29.97 in1014.9 mb 0.00 in0.0 mm 0.00 in/hr0.0 mm/hr 0.00 in0.0 mm
04:00 AM 45.0°F7.2°C 44.7°F7.1°C 99% 1.4 mph WSW2.3 kmh WSW 3.0 mph4.8 kmh 29.96 in1014.6 mb 0.00 in0.0 mm 0.00 in/hr0.0 mm/hr 0.00 in0.0 mm
03:30 AM 44.9°F7.2°C 44.6°F7.0°C 99% 1.7 mph WSW2.7 kmh WSW 3.0 mph4.8 kmh 29.96 in1014.6 mb 0.00 in0.0 mm 0.00 in/hr0.0 mm/hr 0.00 in0.0 mm
03:00 AM 45.5°F7.5°C 45.2°F7.3°C 99% 0.8 mph WSW1.3 kmh WSW 2.0 mph3.2 kmh 29.96 in1014.6 mb 0.00 in0.0 mm 0.00 in/hr0.0 mm/hr 0.00 in0.0 mm
02:30 AM 46.1°F7.8°C 45.8°F7.7°C 99% 0.3 mph WSW0.5 kmh WSW -- 29.96 in1014.6 mb 0.00 in0.0 mm 0.00 in/hr0.0 mm/hr 0.00 in0.0 mm
02:00 AM 46.8°F8.2°C 46.5°F8.1°C 99% Calm Calm -- 29.96 in1014.6 mb 0.00 in0.0 mm 0.00 in/hr0.0 mm/hr 0.00 in0.0 mm
01:30 AM 47.6°F8.7°C 47.1°F8.4°C 98% 0.4 mph WSW0.6 kmh WSW 3.0 mph4.8 kmh 29.96 in1014.6 mb 0.00 in0.0 mm 0.00 in/hr0.0 mm/hr 0.00 in0.0 mm
01:00 AM 48.2°F9.0°C 47.7°F8.7°C 98% 3.0 mph WSW4.8 kmh WSW 6.0 mph9.7 kmh 29.96 in1014.6 mb 0.00 in0.0 mm 0.00 in/hr0.0 mm/hr 0.00 in0.0 mm
12:30 AM 48.8°F9.3°C 48.3°F9.1°C 98% 0.2 mph WSW0.3 kmh WSW 1.0 mph1.6 kmh 29.96 in1014.6 mb 0.00 in0.0 mm 0.00 in/hr0.0 mm/hr 0.00 in0.0 mm
12:00 AM 49.2°F9.6°C 48.7°F9.3°C 98% 0.2 mph WSW0.3 kmh WSW 1.0 mph1.6 kmh 29.96 in1014.6 mb 0.00 in0.0 mm 0.00 in/hr0.0 mm/hr 0.00 in0.0 mm